createdAt,value
2018-11-27T00:03:36.303Z,4.60
2018-11-27T00:07:44.564Z,4.50
2018-11-27T00:11:52.834Z,4.60
2018-11-27T00:16:01.159Z,4.60
2018-11-27T00:20:10.682Z,4.60
2018-11-27T00:24:19.035Z,4.60
2018-11-27T00:28:27.392Z,4.60
2018-11-27T00:32:35.686Z,4.60
2018-11-27T00:36:43.980Z,4.60
2018-11-27T00:40:52.291Z,4.60
2018-11-27T00:45:00.584Z,4.70
2018-11-27T00:49:08.814Z,4.60
2018-11-27T00:53:17.115Z,4.60
2018-11-27T00:57:25.390Z,4.60
2018-11-27T01:01:33.714Z,4.60
2018-11-27T01:05:42.031Z,4.50
2018-11-27T01:09:50.370Z,4.60
2018-11-27T01:13:58.687Z,4.60
2018-11-27T01:18:07.055Z,4.50
2018-11-27T01:22:15.367Z,4.40
2018-11-27T01:26:23.665Z,4.40
2018-11-27T01:30:31.934Z,4.40
2018-11-27T01:34:40.222Z,4.40
2018-11-27T01:38:48.506Z,4.50
2018-11-27T01:42:57.602Z,4.50
2018-11-27T01:47:06.248Z,4.50
2018-11-27T01:51:14.581Z,4.50
2018-11-27T01:55:23.195Z,4.50
2018-11-27T01:59:31.551Z,4.40
2018-11-27T02:03:39.846Z,4.40
2018-11-27T02:07:48.128Z,4.40
2018-11-27T02:11:56.402Z,4.50
2018-11-27T02:16:04.749Z,4.50
2018-11-27T02:20:13.002Z,4.50
2018-11-27T02:24:21.306Z,4.50
2018-11-27T02:28:29.592Z,4.50
2018-11-27T02:32:37.871Z,4.60
2018-11-27T02:36:46.150Z,4.60
2018-11-27T02:40:54.412Z,4.50
2018-11-27T02:45:02.644Z,4.50
2018-11-27T02:49:10.935Z,4.50
2018-11-27T02:53:19.294Z,4.50
2018-11-27T02:57:27.615Z,4.50
2018-11-27T03:01:35.921Z,4.50
2018-11-27T03:05:44.224Z,4.60
2018-11-27T03:09:52.508Z,4.60
2018-11-27T03:18:08.890Z,4.60
2018-11-27T03:22:20.374Z,4.60
2018-11-27T03:26:28.650Z,4.60
2018-11-27T03:30:36.915Z,4.60
2018-11-27T03:34:45.211Z,4.60
2018-11-27T03:38:53.466Z,4.60
2018-11-27T03:47:09.890Z,4.60
2018-11-27T03:51:18.215Z,4.60
2018-11-27T03:55:26.503Z,4.60
2018-11-27T03:59:34.884Z,4.60
2018-11-27T04:03:43.132Z,4.70
2018-11-27T04:07:51.395Z,4.70
2018-11-27T04:11:59.659Z,4.70
2018-11-27T04:16:07.977Z,4.70
2018-11-27T04:20:16.278Z,4.70
2018-11-27T04:24:24.698Z,4.80
2018-11-27T04:28:32.982Z,4.80
2018-11-27T04:32:41.537Z,4.80
2018-11-27T04:36:49.837Z,4.80
2018-11-27T04:40:58.154Z,4.80
2018-11-27T04:45:09.178Z,4.80
2018-11-27T04:49:17.493Z,4.80
2018-11-27T04:53:25.849Z,4.80
2018-11-27T04:57:34.154Z,4.90
2018-11-27T05:01:42.497Z,4.90
2018-11-27T05:05:50.830Z,4.90
2018-11-27T05:09:59.115Z,4.90
2018-11-27T05:14:07.523Z,4.90
2018-11-27T05:18:15.851Z,4.90
2018-11-27T05:22:24.160Z,4.90
2018-11-27T05:26:32.486Z,4.90
2018-11-27T05:30:40.803Z,4.90
2018-11-27T05:34:49.118Z,4.80
2018-11-27T05:38:57.470Z,4.80
2018-11-27T05:43:09.322Z,4.90
2018-11-27T05:51:25.727Z,4.80
2018-11-27T05:55:34.066Z,4.80
2018-11-27T05:59:42.350Z,4.80
2018-11-27T06:03:50.649Z,4.80
2018-11-27T06:07:58.955Z,4.80
2018-11-27T06:12:07.294Z,4.80
2018-11-27T06:16:15.640Z,4.80
2018-11-27T06:20:25.113Z,4.80
2018-11-27T06:24:34.545Z,4.80
2018-11-27T06:28:42.946Z,4.80
2018-11-27T06:32:51.272Z,4.80
2018-11-27T06:37:00.591Z,4.80
2018-11-27T06:41:09.112Z,4.80
2018-11-27T06:45:18.433Z,4.80
2018-11-27T06:49:26.731Z,4.80
2018-11-27T06:53:35.170Z,4.80
2018-11-27T06:57:43.509Z,4.90
2018-11-27T07:01:51.838Z,4.90
2018-11-27T07:06:00.187Z,4.90
2018-11-27T07:10:13.944Z,4.90
2018-11-27T07:14:22.200Z,4.90
2018-11-27T07:18:30.510Z,4.90
2018-11-27T07:22:38.803Z,4.90
2018-11-27T07:26:47.095Z,4.90
2018-11-27T07:30:55.436Z,5.00
2018-11-27T07:35:03.728Z,5.00
2018-11-27T07:39:12.011Z,4.90
2018-11-27T07:43:22.570Z,4.90
2018-11-27T07:47:30.829Z,5.00
2018-11-27T07:51:39.211Z,5.00
2018-11-27T07:55:47.554Z,4.90
2018-11-27T07:59:56.004Z,5.00
2018-11-27T08:04:04.440Z,5.00
2018-11-27T08:08:15.180Z,5.00
2018-11-27T08:12:23.532Z,5.00
2018-11-27T08:16:31.855Z,5.00
2018-11-27T08:20:40.194Z,5.10
2018-11-27T08:28:56.531Z,5.20
2018-11-27T08:33:04.842Z,5.20
2018-11-27T08:37:13.152Z,5.30
2018-11-27T08:41:21.605Z,5.30
2018-11-27T08:45:29.896Z,5.30
2018-11-27T08:49:38.247Z,5.40
2018-11-27T08:53:46.611Z,5.40
2018-11-27T08:57:55.136Z,5.40
2018-11-27T09:02:03.472Z,5.50
2018-11-27T09:06:11.777Z,5.50
2018-11-27T09:10:22.493Z,5.50
2018-11-27T09:14:30.823Z,5.50
2018-11-27T09:18:39.153Z,5.50
2018-11-27T09:22:47.474Z,5.50
2018-11-27T09:26:55.703Z,5.60
2018-11-27T09:31:04.068Z,5.60
2018-11-27T09:35:12.367Z,5.60
2018-11-27T09:39:20.859Z,5.60
2018-11-27T09:43:29.190Z,5.70
2018-11-27T09:47:37.502Z,5.70
2018-11-27T09:51:45.820Z,5.80
2018-11-27T09:55:54.093Z,5.80
2018-11-27T10:00:02.351Z,5.80
2018-11-27T10:04:10.641Z,5.90
2018-11-27T10:08:19.015Z,5.90
2018-11-27T10:12:27.335Z,5.90
2018-11-27T10:16:35.669Z,5.90
2018-11-27T10:20:44.022Z,5.90
2018-11-27T10:24:53.147Z,6.00
2018-11-27T10:29:00.837Z,6.00
2018-11-27T10:33:10.376Z,6.10
2018-11-27T10:37:18.739Z,6.10
2018-11-27T10:41:27.313Z,6.10
2018-11-27T10:45:35.711Z,6.20
2018-11-27T10:49:44.094Z,6.20
2018-11-27T10:53:52.440Z,6.20
2018-11-27T10:58:00.740Z,6.30
2018-11-27T11:02:14.546Z,6.30
2018-11-27T11:06:23.011Z,6.30
2018-11-27T11:10:31.308Z,6.40
2018-11-27T11:14:39.616Z,6.40
2018-11-27T11:18:47.963Z,6.50
2018-11-27T11:22:56.247Z,6.50
2018-11-27T11:27:04.696Z,6.50
2018-11-27T11:31:13.000Z,6.50
2018-11-27T11:39:29.388Z,6.60
2018-11-27T11:43:37.739Z,6.50
2018-11-27T11:47:46.148Z,6.50
2018-11-27T11:51:54.457Z,6.60
2018-11-27T11:56:02.889Z,6.60
2018-11-27T12:00:13.432Z,6.60
2018-11-27T12:04:21.753Z,6.60
2018-11-27T12:08:30.130Z,6.60
2018-11-27T12:12:38.464Z,6.70
2018-11-27T12:16:46.768Z,6.70
2018-11-27T12:20:55.096Z,6.70
2018-11-27T12:25:03.486Z,6.70
2018-11-27T12:29:11.746Z,6.70
2018-11-27T12:33:20.070Z,6.70
2018-11-27T12:37:28.365Z,6.70
2018-11-27T12:41:36.669Z,6.60
2018-11-27T12:45:45.262Z,6.60
2018-11-27T12:49:53.583Z,6.60
2018-11-27T12:54:01.870Z,6.60
2018-11-27T12:58:10.140Z,6.60
2018-11-27T13:02:18.442Z,6.70
2018-11-27T13:06:27.882Z,6.70
2018-11-27T13:10:35.078Z,6.70
2018-11-27T13:14:43.435Z,6.60
2018-11-27T13:18:51.810Z,6.60
2018-11-27T13:23:00.084Z,6.60
2018-11-27T13:27:08.469Z,6.60
2018-11-27T13:31:18.551Z,6.60
2018-11-27T13:39:37.086Z,6.60
2018-11-27T13:43:45.383Z,6.60
2018-11-27T13:47:53.680Z,6.60
2018-11-27T13:52:02.059Z,6.60
2018-11-27T13:56:10.355Z,6.60
2018-11-27T14:00:19.553Z,6.60
2018-11-27T14:04:27.883Z,6.60
2018-11-27T14:08:36.324Z,6.60
2018-11-27T14:12:44.635Z,6.60
2018-11-27T14:16:53.074Z,6.60
2018-11-27T14:21:01.344Z,6.60
2018-11-27T14:25:11.126Z,6.50
2018-11-27T14:29:19.620Z,6.50
2018-11-27T14:33:27.901Z,6.50
2018-11-27T14:37:36.237Z,6.50
2018-11-27T14:41:44.614Z,6.50
2018-11-27T14:45:52.922Z,6.60
2018-11-27T14:50:04.238Z,6.50
2018-11-27T14:54:10.292Z,6.50
2018-11-27T14:58:18.602Z,6.50
2018-11-27T15:02:26.895Z,6.50
2018-11-27T15:06:35.193Z,6.40
2018-11-27T15:10:43.435Z,6.40
2018-11-27T15:14:51.743Z,6.40
2018-11-27T15:19:00.053Z,6.40
2018-11-27T15:23:08.495Z,6.40
2018-11-27T15:27:16.779Z,6.30
2018-11-27T15:31:25.116Z,6.30
2018-11-27T15:35:33.556Z,6.30
2018-11-27T15:39:41.948Z,6.30
2018-11-27T15:43:50.269Z,6.30
2018-11-27T15:47:58.661Z,6.30
2018-11-27T15:52:06.976Z,6.30
2018-11-27T15:56:15.371Z,6.30
2018-11-27T16:00:23.711Z,6.20
2018-11-27T16:04:32.004Z,6.20
2018-11-27T16:08:40.296Z,6.20
2018-11-27T16:12:48.593Z,6.20
2018-11-27T16:16:56.883Z,6.10
2018-11-27T16:21:05.462Z,6.10
2018-11-27T16:25:16.759Z,6.00
2018-11-27T16:29:25.061Z,6.00
2018-11-27T16:33:33.327Z,6.00
2018-11-27T16:37:42.227Z,5.90
2018-11-27T16:41:50.515Z,5.90
2018-11-27T16:45:58.923Z,5.90
2018-11-27T16:50:08.734Z,5.70
2018-11-27T16:54:17.069Z,5.60
2018-11-27T16:58:27.320Z,5.50
2018-11-27T17:02:35.619Z,5.30
2018-11-27T17:06:43.965Z,5.40
2018-11-27T17:10:52.281Z,5.30
2018-11-27T17:15:00.562Z,5.20
2018-11-27T17:19:09.349Z,5.10
2018-11-27T17:23:18.476Z,5.00
2018-11-27T17:27:26.815Z,5.00
2018-11-27T17:31:35.062Z,5.10
2018-11-27T17:35:43.419Z,5.10
2018-11-27T17:39:51.714Z,5.20
2018-11-27T17:43:59.958Z,5.20
2018-11-27T17:48:08.308Z,5.10
2018-11-27T17:52:16.625Z,5.10
2018-11-27T17:56:24.915Z,5.10
2018-11-27T18:00:33.311Z,5.00
2018-11-27T18:04:41.571Z,5.00
2018-11-27T18:08:49.919Z,5.00
2018-11-27T18:12:58.209Z,4.90
2018-11-27T18:17:06.463Z,4.70
2018-11-27T18:21:14.763Z,4.60
2018-11-27T18:25:23.071Z,4.50
2018-11-27T18:29:31.426Z,4.50
2018-11-27T18:33:39.898Z,4.50
2018-11-27T18:37:48.364Z,4.50
2018-11-27T18:41:56.715Z,4.50
2018-11-27T18:46:05.169Z,4.50
2018-11-27T18:50:13.606Z,4.50
2018-11-27T18:54:21.937Z,4.50
2018-11-27T18:58:30.253Z,4.30
2018-11-27T19:02:38.526Z,4.30
2018-11-27T19:06:46.834Z,4.30
2018-11-27T19:10:55.216Z,4.30
2018-11-27T19:15:03.550Z,4.30
2018-11-27T19:19:11.909Z,4.20
2018-11-27T19:23:21.495Z,4.20
2018-11-27T19:27:29.794Z,4.10
2018-11-27T19:35:46.110Z,4.10
2018-11-27T19:39:54.397Z,4.20
2018-11-27T19:44:02.670Z,4.20
2018-11-27T19:48:11.619Z,4.10
2018-11-27T19:52:20.519Z,4.10
2018-11-27T19:56:28.777Z,4.10
2018-11-27T20:00:37.293Z,4.20
2018-11-27T20:04:45.685Z,4.20
2018-11-27T20:08:54.012Z,4.20
2018-11-27T20:13:02.284Z,4.20
2018-11-27T20:17:10.627Z,4.10
2018-11-27T20:21:18.924Z,4.00
2018-11-27T20:25:27.265Z,3.90
2018-11-27T20:29:35.520Z,3.90
2018-11-27T20:33:43.894Z,3.90
2018-11-27T20:37:53.088Z,3.90
2018-11-27T20:42:01.430Z,3.90
2018-11-27T20:46:09.709Z,3.90
2018-11-27T20:50:21.094Z,3.90
2018-11-27T20:54:29.353Z,3.90
2018-11-27T20:58:37.795Z,3.90
2018-11-27T21:02:46.797Z,3.90
2018-11-27T21:06:55.083Z,3.90
2018-11-27T21:11:08.234Z,3.90
2018-11-27T21:15:15.804Z,3.80
2018-11-27T21:19:24.115Z,3.80
2018-11-27T21:23:32.476Z,3.80
2018-11-27T21:27:40.964Z,3.80
2018-11-27T21:31:49.334Z,3.80
2018-11-27T21:35:57.634Z,3.80
2018-11-27T21:40:10.674Z,3.80
2018-11-27T21:44:18.978Z,3.70
2018-11-27T21:48:27.284Z,3.70
2018-11-27T21:52:35.577Z,3.70
2018-11-27T21:56:43.923Z,3.70
2018-11-27T22:00:52.249Z,3.70
2018-11-27T22:05:00.511Z,3.70
2018-11-27T22:09:08.845Z,3.70
2018-11-27T22:13:17.194Z,3.60
2018-11-27T22:17:25.479Z,3.60
2018-11-27T22:21:33.800Z,3.60
2018-11-27T22:25:42.178Z,3.60
2018-11-27T22:29:50.469Z,3.50
2018-11-27T22:34:20.990Z,3.60
2018-11-27T22:38:29.267Z,3.50
2018-11-27T22:42:37.643Z,3.50
2018-11-27T22:46:45.969Z,3.40
2018-11-27T22:50:54.286Z,3.40
2018-11-27T22:55:02.606Z,3.40
2018-11-27T22:59:10.908Z,3.40
2018-11-27T23:03:19.540Z,3.40
2018-11-27T23:07:33.314Z,3.40
2018-11-27T23:11:41.677Z,3.30
2018-11-27T23:15:49.995Z,3.30
2018-11-27T23:19:58.291Z,3.30
2018-11-27T23:24:06.583Z,3.20
2018-11-27T23:28:14.862Z,3.10
2018-11-27T23:32:23.353Z,3.10
2018-11-27T23:36:31.673Z,3.10
2018-11-27T23:40:40.021Z,3.10
2018-11-27T23:44:48.336Z,3.10
2018-11-27T23:48:56.691Z,3.10
2018-11-27T23:53:05.364Z,3.00
2018-11-27T23:57:13.726Z,3.00
